sensor_id;sensor_type;location;lat;lon;timestamp;P1;durP1;ratioP1;P2;durP2;ratioP2
72273;SDS011;60208;48.692;8.948;2023-02-03T00:00:49;2.05;;;0.80;;
72273;SDS011;60208;48.692;8.948;2023-02-03T00:03:15;1.23;;;0.90;;
72273;SDS011;60208;48.692;8.948;2023-02-03T00:05:40;3.92;;;0.90;;
72273;SDS011;60208;48.692;8.948;2023-02-03T00:08:06;1.20;;;0.80;;
72273;SDS011;60208;48.692;8.948;2023-02-03T00:10:33;0.80;;;0.80;;
72273;SDS011;60208;48.692;8.948;2023-02-03T00:12:59;1.55;;;0.85;;
72273;SDS011;60208;48.692;8.948;2023-02-03T00:15:24;1.13;;;0.70;;
72273;SDS011;60208;48.692;8.948;2023-02-03T00:17:50;3.25;;;0.70;;
72273;SDS011;60208;48.692;8.948;2023-02-03T00:20:16;1.08;;;0.80;;
72273;SDS011;60208;48.692;8.948;2023-02-03T00:22:41;1.20;;;0.70;;
72273;SDS011;60208;48.692;8.948;2023-02-03T00:25:07;1.38;;;0.60;;
72273;SDS011;60208;48.692;8.948;2023-02-03T00:27:32;0.70;;;0.63;;
72273;SDS011;60208;48.692;8.948;2023-02-03T00:29:58;1.55;;;0.70;;
72273;SDS011;60208;48.692;8.948;2023-02-03T00:32:23;1.10;;;0.70;;
72273;SDS011;60208;48.692;8.948;2023-02-03T00:34:49;1.10;;;0.70;;
72273;SDS011;60208;48.692;8.948;2023-02-03T00:37:15;1.02;;;0.70;;
72273;SDS011;60208;48.692;8.948;2023-02-03T00:39:40;0.82;;;0.70;;
72273;SDS011;60208;48.692;8.948;2023-02-03T00:42:06;1.35;;;0.65;;
72273;SDS011;60208;48.692;8.948;2023-02-03T00:44:31;0.80;;;0.75;;
72273;SDS011;60208;48.692;8.948;2023-02-03T00:46:57;0.82;;;0.70;;
72273;SDS011;60208;48.692;8.948;2023-02-03T00:49:22;0.80;;;0.65;;
72273;SDS011;60208;48.692;8.948;2023-02-03T00:51:48;1.60;;;1.15;;
72273;SDS011;60208;48.692;8.948;2023-02-03T00:54:14;1.77;;;0.90;;
72273;SDS011;60208;48.692;8.948;2023-02-03T00:56:39;1.08;;;0.70;;
72273;SDS011;60208;48.692;8.948;2023-02-03T00:59:04;0.70;;;0.70;;
72273;SDS011;60208;48.692;8.948;2023-02-03T01:01:31;1.05;;;0.80;;
72273;SDS011;60208;48.692;8.948;2023-02-03T01:03:57;1.55;;;0.80;;
72273;SDS011;60208;48.692;8.948;2023-02-03T01:06:23;0.70;;;0.60;;
72273;SDS011;60208;48.692;8.948;2023-02-03T01:08:49;1.58;;;0.60;;
72273;SDS011;60208;48.692;8.948;2023-02-03T01:11:16;0.80;;;0.80;;
72273;SDS011;60208;48.692;8.948;2023-02-03T01:13:46;1.45;;;0.70;;
72273;SDS011;60208;48.692;8.948;2023-02-03T01:16:14;1.15;;;0.80;;
72273;SDS011;60208;48.692;8.948;2023-02-03T01:18:41;1.00;;;0.90;;
72273;SDS011;60208;48.692;8.948;2023-02-03T01:21:07;3.65;;;0.80;;
72273;SDS011;60208;48.692;8.948;2023-02-03T01:23:34;2.28;;;0.90;;
72273;SDS011;60208;48.692;8.948;2023-02-03T01:26:19;1.90;;;1.00;;
72273;SDS011;60208;48.692;8.948;2023-02-03T01:31:22;1.20;;;1.00;;
72273;SDS011;60208;48.692;8.948;2023-02-03T01:33:50;3.00;;;0.95;;
72273;SDS011;60208;48.692;8.948;2023-02-03T01:36:17;3.08;;;1.30;;
72273;SDS011;60208;48.692;8.948;2023-02-03T01:38:42;2.42;;;1.08;;
72273;SDS011;60208;48.692;8.948;2023-02-03T01:41:09;2.53;;;1.30;;
72273;SDS011;60208;48.692;8.948;2023-02-03T01:43:40;2.53;;;1.13;;
72273;SDS011;60208;48.692;8.948;2023-02-03T01:49:06;1.98;;;1.40;;
72273;SDS011;60208;48.692;8.948;2023-02-03T01:51:41;2.30;;;1.20;;
72273;SDS011;60208;48.692;8.948;2023-02-03T01:54:08;1.92;;;1.08;;
72273;SDS011;60208;48.692;8.948;2023-02-03T01:56:37;1.85;;;1.10;;
72273;SDS011;60208;48.692;8.948;2023-02-03T01:59:05;1.60;;;1.00;;
72273;SDS011;60208;48.692;8.948;2023-02-03T02:01:30;3.30;;;1.30;;
72273;SDS011;60208;48.692;8.948;2023-02-03T02:03:57;1.98;;;1.35;;
72273;SDS011;60208;48.692;8.948;2023-02-03T02:06:24;5.20;;;1.45;;
72273;SDS011;60208;48.692;8.948;2023-02-03T02:08:50;1.80;;;1.30;;
72273;SDS011;60208;48.692;8.948;2023-02-03T02:11:16;2.17;;;1.38;;
72273;SDS011;60208;48.692;8.948;2023-02-03T02:13:44;2.03;;;1.30;;
72273;SDS011;60208;48.692;8.948;2023-02-03T02:16:15;2.20;;;1.50;;
72273;SDS011;60208;48.692;8.948;2023-02-03T02:31:56;3.72;;;1.60;;
72273;SDS011;60208;48.692;8.948;2023-02-03T02:34:43;2.70;;;1.60;;
72273;SDS011;60208;48.692;8.948;2023-02-03T02:39:57;1.98;;;1.00;;
72273;SDS011;60208;48.692;8.948;2023-02-03T02:45:16;1.63;;;1.27;;
72273;SDS011;60208;48.692;8.948;2023-02-03T02:47:46;1.65;;;1.20;;
72273;SDS011;60208;48.692;8.948;2023-02-03T02:50:17;2.17;;;1.15;;
72273;SDS011;60208;48.692;8.948;2023-02-03T02:52:47;2.58;;;1.10;;
72273;SDS011;60208;48.692;8.948;2023-02-03T02:55:16;1.83;;;1.00;;
72273;SDS011;60208;48.692;8.948;2023-02-03T02:57:48;3.80;;;1.02;;
72273;SDS011;60208;48.692;8.948;2023-02-03T03:00:16;2.50;;;1.10;;
72273;SDS011;60208;48.692;8.948;2023-02-03T03:02:41;1.88;;;1.10;;
72273;SDS011;60208;48.692;8.948;2023-02-03T03:05:07;1.15;;;0.80;;
72273;SDS011;60208;48.692;8.948;2023-02-03T03:07:36;2.97;;;0.80;;
72273;SDS011;60208;48.692;8.948;2023-02-03T03:10:06;1.67;;;1.00;;
72273;SDS011;60208;48.692;8.948;2023-02-03T03:12:34;1.17;;;0.70;;
72273;SDS011;60208;48.692;8.948;2023-02-03T03:15:03;2.88;;;0.80;;
72273;SDS011;60208;48.692;8.948;2023-02-03T03:17:32;0.75;;;0.68;;
72273;SDS011;60208;48.692;8.948;2023-02-03T03:20:01;0.85;;;0.80;;
72273;SDS011;60208;48.692;8.948;2023-02-03T03:22:31;1.27;;;0.80;;
72273;SDS011;60208;48.692;8.948;2023-02-03T03:25:20;1.33;;;0.80;;
72273;SDS011;60208;48.692;8.948;2023-02-03T03:27:47;0.70;;;0.68;;
72273;SDS011;60208;48.692;8.948;2023-02-03T03:30:16;1.27;;;0.80;;
72273;SDS011;60208;48.692;8.948;2023-02-03T03:32:44;0.70;;;0.70;;
72273;SDS011;60208;48.692;8.948;2023-02-03T03:35:09;1.42;;;0.80;;
72273;SDS011;60208;48.692;8.948;2023-02-03T03:40:11;2.10;;;0.88;;
72273;SDS011;60208;48.692;8.948;2023-02-03T03:45:19;0.70;;;0.65;;
72273;SDS011;60208;48.692;8.948;2023-02-03T03:48:03;1.27;;;0.63;;
72273;SDS011;60208;48.692;8.948;2023-02-03T03:50:33;2.00;;;0.70;;
72273;SDS011;60208;48.692;8.948;2023-02-03T03:53:01;0.52;;;0.50;;
72273;SDS011;60208;48.692;8.948;2023-02-03T03:55:28;0.75;;;0.70;;
72273;SDS011;60208;48.692;8.948;2023-02-03T03:58:12;1.10;;;0.60;;
72273;SDS011;60208;48.692;8.948;2023-02-03T04:00:38;1.48;;;0.70;;
72273;SDS011;60208;48.692;8.948;2023-02-03T04:03:15;1.20;;;0.50;;
72273;SDS011;60208;48.692;8.948;2023-02-03T04:05:44;0.40;;;0.40;;
72273;SDS011;60208;48.692;8.948;2023-02-03T04:08:09;0.50;;;0.43;;
72273;SDS011;60208;48.692;8.948;2023-02-03T04:10:35;0.50;;;0.50;;
72273;SDS011;60208;48.692;8.948;2023-02-03T04:13:03;2.72;;;0.43;;
72273;SDS011;60208;48.692;8.948;2023-02-03T04:15:29;0.50;;;0.50;;
72273;SDS011;60208;48.692;8.948;2023-02-03T04:17:55;0.57;;;0.50;;
72273;SDS011;60208;48.692;8.948;2023-02-03T04:20:21;1.17;;;0.60;;
72273;SDS011;60208;48.692;8.948;2023-02-03T04:22:48;0.60;;;0.52;;
72273;SDS011;60208;48.692;8.948;2023-02-03T04:25:13;2.80;;;0.80;;
72273;SDS011;60208;48.692;8.948;2023-02-03T04:27:39;1.42;;;0.60;;
72273;SDS011;60208;48.692;8.948;2023-02-03T04:30:04;0.70;;;0.60;;
72273;SDS011;60208;48.692;8.948;2023-02-03T04:32:30;0.73;;;0.73;;
72273;SDS011;60208;48.692;8.948;2023-02-03T04:34:56;1.02;;;0.93;;
72273;SDS011;60208;48.692;8.948;2023-02-03T04:37:23;1.58;;;0.75;;
72273;SDS011;60208;48.692;8.948;2023-02-03T04:39:50;1.92;;;0.80;;
72273;SDS011;60208;48.692;8.948;2023-02-03T04:42:16;3.63;;;1.15;;
72273;SDS011;60208;48.692;8.948;2023-02-03T04:44:42;2.70;;;0.93;;
72273;SDS011;60208;48.692;8.948;2023-02-03T04:47:07;1.92;;;1.08;;
72273;SDS011;60208;48.692;8.948;2023-02-03T04:49:32;1.77;;;0.90;;
72273;SDS011;60208;48.692;8.948;2023-02-03T04:51:58;3.35;;;1.10;;
72273;SDS011;60208;48.692;8.948;2023-02-03T04:54:23;4.03;;;0.93;;
72273;SDS011;60208;48.692;8.948;2023-02-03T04:56:48;3.50;;;1.02;;
72273;SDS011;60208;48.692;8.948;2023-02-03T04:59:14;1.88;;;1.00;;
72273;SDS011;60208;48.692;8.948;2023-02-03T05:01:39;1.23;;;1.10;;
72273;SDS011;60208;48.692;8.948;2023-02-03T05:04:04;1.00;;;0.90;;
72273;SDS011;60208;48.692;8.948;2023-02-03T05:06:30;3.80;;;1.10;;
72273;SDS011;60208;48.692;8.948;2023-02-03T05:08:56;2.95;;;1.00;;
72273;SDS011;60208;48.692;8.948;2023-02-03T05:11:22;1.85;;;0.90;;
72273;SDS011;60208;48.692;8.948;2023-02-03T05:13:48;3.35;;;1.10;;
72273;SDS011;60208;48.692;8.948;2023-02-03T05:16:13;0.95;;;0.88;;
72273;SDS011;60208;48.692;8.948;2023-02-03T05:18:39;2.88;;;1.00;;
72273;SDS011;60208;48.692;8.948;2023-02-03T05:21:04;1.77;;;0.85;;
72273;SDS011;60208;48.692;8.948;2023-02-03T05:23:30;1.55;;;1.15;;
72273;SDS011;60208;48.692;8.948;2023-02-03T05:25:55;1.58;;;0.90;;
72273;SDS011;60208;48.692;8.948;2023-02-03T05:28:21;1.73;;;0.98;;
72273;SDS011;60208;48.692;8.948;2023-02-03T05:30:46;1.35;;;0.80;;
72273;SDS011;60208;48.692;8.948;2023-02-03T05:33:11;2.22;;;0.90;;
72273;SDS011;60208;48.692;8.948;2023-02-03T05:35:37;1.73;;;0.90;;
72273;SDS011;60208;48.692;8.948;2023-02-03T05:38:02;2.00;;;0.98;;
72273;SDS011;60208;48.692;8.948;2023-02-03T05:40:28;1.13;;;0.70;;
72273;SDS011;60208;48.692;8.948;2023-02-03T05:43:12;2.80;;;1.10;;
72273;SDS011;60208;48.692;8.948;2023-02-03T05:45:37;2.22;;;0.70;;
72273;SDS011;60208;48.692;8.948;2023-02-03T05:48:03;0.80;;;0.80;;
72273;SDS011;60208;48.692;8.948;2023-02-03T05:50:29;1.40;;;0.63;;
72273;SDS011;60208;48.692;8.948;2023-02-03T05:52:58;3.10;;;0.90;;
72273;SDS011;60208;48.692;8.948;2023-02-03T05:55:24;2.10;;;0.73;;
72273;SDS011;60208;48.692;8.948;2023-02-03T05:57:50;2.13;;;0.70;;
72273;SDS011;60208;48.692;8.948;2023-02-03T06:00:15;3.17;;;0.77;;
72273;SDS011;60208;48.692;8.948;2023-02-03T06:02:41;2.65;;;1.00;;
72273;SDS011;60208;48.692;8.948;2023-02-03T06:05:06;2.03;;;0.85;;
72273;SDS011;60208;48.692;8.948;2023-02-03T06:07:32;2.20;;;0.73;;
72273;SDS011;60208;48.692;8.948;2023-02-03T06:09:57;2.20;;;0.70;;
72273;SDS011;60208;48.692;8.948;2023-02-03T06:12:23;0.82;;;0.77;;
72273;SDS011;60208;48.692;8.948;2023-02-03T06:14:48;1.75;;;0.90;;
72273;SDS011;60208;48.692;8.948;2023-02-03T06:17:13;3.22;;;0.70;;
72273;SDS011;60208;48.692;8.948;2023-02-03T06:19:39;1.55;;;0.73;;
72273;SDS011;60208;48.692;8.948;2023-02-03T06:22:04;1.50;;;0.60;;
72273;SDS011;60208;48.692;8.948;2023-02-03T06:24:29;1.08;;;0.75;;
72273;SDS011;60208;48.692;8.948;2023-02-03T06:26:55;2.70;;;1.00;;
72273;SDS011;60208;48.692;8.948;2023-02-03T06:29:20;2.30;;;0.93;;
72273;SDS011;60208;48.692;8.948;2023-02-03T06:31:45;2.35;;;0.73;;
72273;SDS011;60208;48.692;8.948;2023-02-03T06:34:11;2.80;;;0.85;;
72273;SDS011;60208;48.692;8.948;2023-02-03T06:36:36;4.80;;;1.00;;
72273;SDS011;60208;48.692;8.948;2023-02-03T06:39:01;2.70;;;1.10;;
72273;SDS011;60208;48.692;8.948;2023-02-03T06:41:27;4.55;;;1.52;;
72273;SDS011;60208;48.692;8.948;2023-02-03T06:43:54;8.27;;;1.50;;
72273;SDS011;60208;48.692;8.948;2023-02-03T06:46:20;6.30;;;1.42;;
72273;SDS011;60208;48.692;8.948;2023-02-03T06:48:46;4.78;;;1.40;;
72273;SDS011;60208;48.692;8.948;2023-02-03T06:51:11;3.72;;;1.30;;
72273;SDS011;60208;48.692;8.948;2023-02-03T06:53:36;7.35;;;1.60;;
72273;SDS011;60208;48.692;8.948;2023-02-03T06:56:02;3.35;;;1.40;;
72273;SDS011;60208;48.692;8.948;2023-02-03T06:58:27;3.50;;;1.38;;
72273;SDS011;60208;48.692;8.948;2023-02-03T07:00:56;7.20;;;1.70;;
72273;SDS011;60208;48.692;8.948;2023-02-03T07:03:21;10.20;;;2.10;;
72273;SDS011;60208;48.692;8.948;2023-02-03T07:05:47;4.25;;;1.90;;
72273;SDS011;60208;48.692;8.948;2023-02-03T07:08:12;12.18;;;2.40;;
72273;SDS011;60208;48.692;8.948;2023-02-03T07:10:37;5.18;;;1.70;;
72273;SDS011;60208;48.692;8.948;2023-02-03T07:13:04;3.75;;;2.00;;
72273;SDS011;60208;48.692;8.948;2023-02-03T07:15:30;5.60;;;1.98;;
72273;SDS011;60208;48.692;8.948;2023-02-03T07:17:55;9.40;;;2.67;;
72273;SDS011;60208;48.692;8.948;2023-02-03T07:20:21;12.05;;;5.55;;
72273;SDS011;60208;48.692;8.948;2023-02-03T07:22:52;13.48;;;5.30;;
72273;SDS011;60208;48.692;8.948;2023-02-03T07:25:21;23.58;;;15.43;;
72273;SDS011;60208;48.692;8.948;2023-02-03T07:27:48;7.63;;;2.83;;
72273;SDS011;60208;48.692;8.948;2023-02-03T07:30:13;5.85;;;3.33;;
72273;SDS011;60208;48.692;8.948;2023-02-03T07:32:39;10.55;;;6.38;;
72273;SDS011;60208;48.692;8.948;2023-02-03T07:35:04;4.90;;;3.28;;
72273;SDS011;60208;48.692;8.948;2023-02-03T07:37:30;7.05;;;3.35;;
72273;SDS011;60208;48.692;8.948;2023-02-03T07:39:55;10.07;;;2.70;;
72273;SDS011;60208;48.692;8.948;2023-02-03T07:42:21;4.80;;;2.92;;
72273;SDS011;60208;48.692;8.948;2023-02-03T07:44:46;9.80;;;3.10;;
72273;SDS011;60208;48.692;8.948;2023-02-03T07:47:12;5.55;;;3.10;;
72273;SDS011;60208;48.692;8.948;2023-02-03T07:49:37;4.68;;;2.63;;
72273;SDS011;60208;48.692;8.948;2023-02-03T07:52:03;5.20;;;3.25;;
72273;SDS011;60208;48.692;8.948;2023-02-03T07:54:28;4.05;;;2.63;;
72273;SDS011;60208;48.692;8.948;2023-02-03T07:56:53;6.97;;;2.97;;
72273;SDS011;60208;48.692;8.948;2023-02-03T07:59:19;4.35;;;2.70;;
72273;SDS011;60208;48.692;8.948;2023-02-03T08:01:45;4.82;;;2.78;;
72273;SDS011;60208;48.692;8.948;2023-02-03T08:04:10;5.15;;;2.70;;
72273;SDS011;60208;48.692;8.948;2023-02-03T08:06:40;4.97;;;2.70;;
72273;SDS011;60208;48.692;8.948;2023-02-03T08:09:06;14.02;;;8.90;;
72273;SDS011;60208;48.692;8.948;2023-02-03T08:11:31;4.57;;;3.10;;
72273;SDS011;60208;48.692;8.948;2023-02-03T08:13:56;4.47;;;2.88;;
72273;SDS011;60208;48.692;8.948;2023-02-03T08:18:49;7.55;;;4.13;;
72273;SDS011;60208;48.692;8.948;2023-02-03T08:21:15;13.60;;;8.18;;
72273;SDS011;60208;48.692;8.948;2023-02-03T08:23:40;7.35;;;4.57;;
72273;SDS011;60208;48.692;8.948;2023-02-03T08:26:06;8.75;;;4.35;;
72273;SDS011;60208;48.692;8.948;2023-02-03T08:28:31;11.27;;;5.65;;
72273;SDS011;60208;48.692;8.948;2023-02-03T08:30:56;14.10;;;5.47;;
72273;SDS011;60208;48.692;8.948;2023-02-03T08:33:22;10.10;;;5.75;;
72273;SDS011;60208;48.692;8.948;2023-02-03T08:35:48;9.10;;;4.43;;
72273;SDS011;60208;48.692;8.948;2023-02-03T08:38:14;9.27;;;4.85;;
72273;SDS011;60208;48.692;8.948;2023-02-03T08:40:39;7.82;;;3.78;;
72273;SDS011;60208;48.692;8.948;2023-02-03T08:43:05;6.75;;;3.75;;
72273;SDS011;60208;48.692;8.948;2023-02-03T08:45:30;7.78;;;3.92;;
72273;SDS011;60208;48.692;8.948;2023-02-03T08:47:56;6.30;;;3.53;;
72273;SDS011;60208;48.692;8.948;2023-02-03T08:50:21;5.85;;;3.80;;
72273;SDS011;60208;48.692;8.948;2023-02-03T08:52:46;5.47;;;3.55;;
72273;SDS011;60208;48.692;8.948;2023-02-03T08:55:12;4.65;;;3.63;;
72273;SDS011;60208;48.692;8.948;2023-02-03T08:57:38;4.45;;;3.90;;
72273;SDS011;60208;48.692;8.948;2023-02-03T09:00:06;3.67;;;2.10;;
72273;SDS011;60208;48.692;8.948;2023-02-03T09:02:33;4.25;;;1.95;;
72273;SDS011;60208;48.692;8.948;2023-02-03T09:04:58;4.72;;;2.85;;
72273;SDS011;60208;48.692;8.948;2023-02-03T09:07:24;9.25;;;2.95;;
72273;SDS011;60208;48.692;8.948;2023-02-03T09:09:50;6.63;;;2.08;;
72273;SDS011;60208;48.692;8.948;2023-02-03T09:12:15;3.63;;;1.63;;
72273;SDS011;60208;48.692;8.948;2023-02-03T09:14:41;6.07;;;1.40;;
72273;SDS011;60208;48.692;8.948;2023-02-03T09:17:08;5.18;;;1.67;;
72273;SDS011;60208;48.692;8.948;2023-02-03T09:19:33;3.70;;;1.52;;
72273;SDS011;60208;48.692;8.948;2023-02-03T09:21:59;5.07;;;1.45;;
72273;SDS011;60208;48.692;8.948;2023-02-03T09:24:25;3.92;;;1.48;;
72273;SDS011;60208;48.692;8.948;2023-02-03T09:26:52;3.60;;;1.73;;
72273;SDS011;60208;48.692;8.948;2023-02-03T09:29:19;3.55;;;2.40;;
72273;SDS011;60208;48.692;8.948;2023-02-03T09:31:44;4.78;;;1.60;;
72273;SDS011;60208;48.692;8.948;2023-02-03T09:34:13;1.80;;;1.50;;
72273;SDS011;60208;48.692;8.948;2023-02-03T09:36:38;2.58;;;1.10;;
72273;SDS011;60208;48.692;8.948;2023-02-03T09:39:03;2.95;;;1.30;;
72273;SDS011;60208;48.692;8.948;2023-02-03T09:46:47;2.60;;;1.60;;
72273;SDS011;60208;48.692;8.948;2023-02-03T09:49:17;4.03;;;3.50;;
72273;SDS011;60208;48.692;8.948;2023-02-03T09:51:48;3.17;;;1.60;;
72273;SDS011;60208;48.692;8.948;2023-02-03T09:54:26;2.33;;;1.85;;
72273;SDS011;60208;48.692;8.948;2023-02-03T09:57:04;2.20;;;2.00;;
72273;SDS011;60208;48.692;8.948;2023-02-03T09:59:31;4.50;;;4.10;;
72273;SDS011;60208;48.692;8.948;2023-02-03T10:02:14;2.35;;;1.10;;
72273;SDS011;60208;48.692;8.948;2023-02-03T10:05:06;1.35;;;1.05;;
72273;SDS011;60208;48.692;8.948;2023-02-03T10:11:05;3.63;;;1.75;;
72273;SDS011;60208;48.692;8.948;2023-02-03T10:19:20;1.48;;;0.80;;
72273;SDS011;60208;48.692;8.948;2023-02-03T10:21:54;0.93;;;0.80;;
72273;SDS011;60208;48.692;8.948;2023-02-03T10:26:51;0.60;;;0.60;;
72273;SDS011;60208;48.692;8.948;2023-02-03T10:31:44;0.73;;;0.65;;
72273;SDS011;60208;48.692;8.948;2023-02-03T10:34:12;0.50;;;0.50;;
72273;SDS011;60208;48.692;8.948;2023-02-03T10:36:52;1.83;;;0.70;;
72273;SDS011;60208;48.692;8.948;2023-02-03T10:39:38;0.80;;;0.80;;
72273;SDS011;60208;48.692;8.948;2023-02-03T10:42:07;0.70;;;0.70;;
72273;SDS011;60208;48.692;8.948;2023-02-03T10:44:37;1.20;;;0.80;;
72273;SDS011;60208;48.692;8.948;2023-02-03T10:47:14;0.65;;;0.60;;
72273;SDS011;60208;48.692;8.948;2023-02-03T10:49:44;0.73;;;0.60;;
72273;SDS011;60208;48.692;8.948;2023-02-03T10:52:23;0.80;;;0.70;;
72273;SDS011;60208;48.692;8.948;2023-02-03T10:54:53;0.60;;;0.60;;
72273;SDS011;60208;48.692;8.948;2023-02-03T10:57:19;0.90;;;0.60;;
72273;SDS011;60208;48.692;8.948;2023-02-03T10:59:46;1.00;;;0.57;;
72273;SDS011;60208;48.692;8.948;2023-02-03T11:02:22;0.77;;;0.70;;
72273;SDS011;60208;48.692;8.948;2023-02-03T11:05:07;1.05;;;0.60;;
72273;SDS011;60208;48.692;8.948;2023-02-03T11:07:44;0.80;;;0.60;;
72273;SDS011;60208;48.692;8.948;2023-02-03T11:13:11;1.40;;;1.10;;
72273;SDS011;60208;48.692;8.948;2023-02-03T11:15:43;1.25;;;0.80;;
72273;SDS011;60208;48.692;8.948;2023-02-03T11:18:24;0.80;;;0.73;;
72273;SDS011;60208;48.692;8.948;2023-02-03T11:21:05;2.92;;;0.57;;
72273;SDS011;60208;48.692;8.948;2023-02-03T11:23:31;1.38;;;0.55;;
72273;SDS011;60208;48.692;8.948;2023-02-03T11:25:57;2.83;;;0.60;;
72273;SDS011;60208;48.692;8.948;2023-02-03T11:28:22;0.80;;;0.60;;
72273;SDS011;60208;48.692;8.948;2023-02-03T11:30:55;0.40;;;0.40;;
72273;SDS011;60208;48.692;8.948;2023-02-03T11:33:21;0.95;;;0.68;;
72273;SDS011;60208;48.692;8.948;2023-02-03T11:35:55;1.25;;;0.60;;
72273;SDS011;60208;48.692;8.948;2023-02-03T11:38:28;0.95;;;0.60;;
72273;SDS011;60208;48.692;8.948;2023-02-03T11:40:58;1.33;;;0.63;;
72273;SDS011;60208;48.692;8.948;2023-02-03T11:43:25;1.40;;;0.60;;
72273;SDS011;60208;48.692;8.948;2023-02-03T11:45:53;1.40;;;0.40;;
72273;SDS011;60208;48.692;8.948;2023-02-03T11:48:37;0.75;;;0.60;;
72273;SDS011;60208;48.692;8.948;2023-02-03T11:54:01;0.50;;;0.50;;
72273;SDS011;60208;48.692;8.948;2023-02-03T11:56:57;1.42;;;0.70;;
72273;SDS011;60208;48.692;8.948;2023-02-03T12:05:25;0.38;;;0.38;;
72273;SDS011;60208;48.692;8.948;2023-02-03T12:16:15;0.55;;;0.50;;
72273;SDS011;60208;48.692;8.948;2023-02-03T12:18:47;0.60;;;0.50;;
72273;SDS011;60208;48.692;8.948;2023-02-03T12:29:21;1.95;;;0.70;;
72273;SDS011;60208;48.692;8.948;2023-02-03T12:31:54;1.95;;;0.50;;
72273;SDS011;60208;48.692;8.948;2023-02-03T12:34:33;0.50;;;0.50;;
72273;SDS011;60208;48.692;8.948;2023-02-03T12:42:30;0.60;;;0.55;;
72273;SDS011;60208;48.692;8.948;2023-02-03T12:45:19;1.08;;;0.70;;
72273;SDS011;60208;48.692;8.948;2023-02-03T12:50:22;0.80;;;0.60;;
72273;SDS011;60208;48.692;8.948;2023-02-03T12:52:59;0.55;;;0.55;;
72273;SDS011;60208;48.692;8.948;2023-02-03T12:55:32;0.60;;;0.60;;
72273;SDS011;60208;48.692;8.948;2023-02-03T13:00:33;0.68;;;0.68;;
72273;SDS011;60208;48.692;8.948;2023-02-03T13:13:56;0.65;;;0.57;;
72273;SDS011;60208;48.692;8.948;2023-02-03T13:16:28;0.80;;;0.80;;
72273;SDS011;60208;48.692;8.948;2023-02-03T13:18:58;1.38;;;0.70;;
72273;SDS011;60208;48.692;8.948;2023-02-03T13:21:26;0.73;;;0.70;;
72273;SDS011;60208;48.692;8.948;2023-02-03T13:23:52;0.60;;;0.60;;
72273;SDS011;60208;48.692;8.948;2023-02-03T13:31:33;0.55;;;0.50;;
72273;SDS011;60208;48.692;8.948;2023-02-03T13:34:32;1.60;;;0.50;;
72273;SDS011;60208;48.692;8.948;2023-02-03T13:42:30;0.75;;;0.70;;
72273;SDS011;60208;48.692;8.948;2023-02-03T13:47:44;1.20;;;0.60;;
72273;SDS011;60208;48.692;8.948;2023-02-03T13:50:21;1.13;;;0.60;;
72273;SDS011;60208;48.692;8.948;2023-02-03T13:52:53;2.15;;;1.27;;
72273;SDS011;60208;48.692;8.948;2023-02-03T13:55:42;0.60;;;0.60;;
72273;SDS011;60208;48.692;8.948;2023-02-03T13:58:17;1.00;;;0.90;;
72273;SDS011;60208;48.692;8.948;2023-02-03T14:05:51;1.00;;;0.50;;
72273;SDS011;60208;48.692;8.948;2023-02-03T14:21:43;1.15;;;0.60;;
72273;SDS011;60208;48.692;8.948;2023-02-03T14:24:15;1.92;;;0.65;;
72273;SDS011;60208;48.692;8.948;2023-02-03T14:26:47;1.13;;;0.60;;
72273;SDS011;60208;48.692;8.948;2023-02-03T14:29:27;0.90;;;0.50;;
72273;SDS011;60208;48.692;8.948;2023-02-03T14:32:05;1.77;;;0.60;;
72273;SDS011;60208;48.692;8.948;2023-02-03T14:42:27;0.60;;;0.60;;
72273;SDS011;60208;48.692;8.948;2023-02-03T14:59:39;1.02;;;0.80;;
72273;SDS011;60208;48.692;8.948;2023-02-03T15:04:38;0.82;;;0.60;;
72273;SDS011;60208;48.692;8.948;2023-02-03T15:07:04;1.30;;;0.70;;
72273;SDS011;60208;48.692;8.948;2023-02-03T15:12:16;0.80;;;0.70;;
72273;SDS011;60208;48.692;8.948;2023-02-03T15:17:12;1.02;;;0.70;;
72273;SDS011;60208;48.692;8.948;2023-02-03T15:19:47;0.68;;;0.60;;
72273;SDS011;60208;48.692;8.948;2023-02-03T15:24:48;0.60;;;0.60;;
72273;SDS011;60208;48.692;8.948;2023-02-03T15:27:20;1.30;;;0.70;;
72273;SDS011;60208;48.692;8.948;2023-02-03T15:29:50;1.25;;;0.70;;
72273;SDS011;60208;48.692;8.948;2023-02-03T15:32:32;1.40;;;0.50;;
72273;SDS011;60208;48.692;8.948;2023-02-03T15:35:00;0.57;;;0.57;;
72273;SDS011;60208;48.692;8.948;2023-02-03T15:37:29;1.52;;;0.60;;
72273;SDS011;60208;48.692;8.948;2023-02-03T15:39:59;0.88;;;0.60;;
72273;SDS011;60208;48.692;8.948;2023-02-03T15:42:45;1.35;;;0.70;;
72273;SDS011;60208;48.692;8.948;2023-02-03T15:48:12;1.42;;;0.68;;
72273;SDS011;60208;48.692;8.948;2023-02-03T15:53:15;0.85;;;0.65;;
72273;SDS011;60208;48.692;8.948;2023-02-03T15:55:53;1.00;;;0.70;;
72273;SDS011;60208;48.692;8.948;2023-02-03T15:58:25;1.85;;;0.65;;
72273;SDS011;60208;48.692;8.948;2023-02-03T16:00:56;1.15;;;0.60;;
72273;SDS011;60208;48.692;8.948;2023-02-03T16:03:32;0.98;;;0.60;;
72273;SDS011;60208;48.692;8.948;2023-02-03T16:08:51;0.80;;;0.60;;
72273;SDS011;60208;48.692;8.948;2023-02-03T16:13:51;2.90;;;2.33;;
72273;SDS011;60208;48.692;8.948;2023-02-03T16:16:24;3.72;;;2.60;;
72273;SDS011;60208;48.692;8.948;2023-02-03T16:19:01;4.10;;;2.40;;
72273;SDS011;60208;48.692;8.948;2023-02-03T16:21:35;1.50;;;1.40;;
72273;SDS011;60208;48.692;8.948;2023-02-03T16:36:08;2.55;;;2.20;;
72273;SDS011;60208;48.692;8.948;2023-02-03T16:38:54;3.58;;;2.40;;
72273;SDS011;60208;48.692;8.948;2023-02-03T16:41:37;1.20;;;1.00;;
72273;SDS011;60208;48.692;8.948;2023-02-03T16:44:22;1.65;;;1.30;;
72273;SDS011;60208;48.692;8.948;2023-02-03T16:47:25;1.48;;;0.90;;
72273;SDS011;60208;48.692;8.948;2023-02-03T16:50:17;0.77;;;0.70;;
72273;SDS011;60208;48.692;8.948;2023-02-03T16:53:02;1.02;;;0.80;;
72273;SDS011;60208;48.692;8.948;2023-02-03T16:55:28;0.75;;;0.70;;
72273;SDS011;60208;48.692;8.948;2023-02-03T16:57:53;2.25;;;1.00;;
72273;SDS011;60208;48.692;8.948;2023-02-03T17:00:19;1.45;;;0.90;;
72273;SDS011;60208;48.692;8.948;2023-02-03T17:02:46;2.42;;;1.08;;
72273;SDS011;60208;48.692;8.948;2023-02-03T17:05:13;3.45;;;1.73;;
72273;SDS011;60208;48.692;8.948;2023-02-03T17:07:38;1.70;;;1.10;;
72273;SDS011;60208;48.692;8.948;2023-02-03T17:10:03;2.05;;;0.80;;
72273;SDS011;60208;48.692;8.948;2023-02-03T17:12:29;1.58;;;0.82;;
72273;SDS011;60208;48.692;8.948;2023-02-03T17:14:57;1.13;;;1.02;;
72273;SDS011;60208;48.692;8.948;2023-02-03T17:17:23;1.20;;;1.10;;
72273;SDS011;60208;48.692;8.948;2023-02-03T17:19:48;1.10;;;1.00;;
72273;SDS011;60208;48.692;8.948;2023-02-03T17:22:14;1.52;;;1.17;;
72273;SDS011;60208;48.692;8.948;2023-02-03T17:24:39;1.33;;;0.98;;
72273;SDS011;60208;48.692;8.948;2023-02-03T17:27:05;1.60;;;1.27;;
72273;SDS011;60208;48.692;8.948;2023-02-03T17:29:30;0.98;;;0.90;;
72273;SDS011;60208;48.692;8.948;2023-02-03T17:31:56;1.02;;;0.90;;
72273;SDS011;60208;48.692;8.948;2023-02-03T17:34:21;1.02;;;0.80;;
72273;SDS011;60208;48.692;8.948;2023-02-03T17:36:46;1.10;;;0.93;;
72273;SDS011;60208;48.692;8.948;2023-02-03T17:39:12;0.77;;;0.77;;
72273;SDS011;60208;48.692;8.948;2023-02-03T17:41:37;1.13;;;1.00;;
72273;SDS011;60208;48.692;8.948;2023-02-03T17:44:02;1.15;;;0.98;;
72273;SDS011;60208;48.692;8.948;2023-02-03T17:46:28;1.48;;;0.90;;
72273;SDS011;60208;48.692;8.948;2023-02-03T17:48:54;0.95;;;0.85;;
72273;SDS011;60208;48.692;8.948;2023-02-03T17:51:21;1.33;;;1.00;;
72273;SDS011;60208;48.692;8.948;2023-02-03T17:53:49;1.27;;;1.02;;
72273;SDS011;60208;48.692;8.948;2023-02-03T17:56:19;2.03;;;1.10;;
72273;SDS011;60208;48.692;8.948;2023-02-03T17:58:47;1.10;;;1.00;;
72273;SDS011;60208;48.692;8.948;2023-02-03T18:01:13;1.17;;;1.00;;
72273;SDS011;60208;48.692;8.948;2023-02-03T18:03:44;0.80;;;0.77;;
72273;SDS011;60208;48.692;8.948;2023-02-03T18:06:14;0.70;;;0.70;;